sensor_id;sensor_type;location;lat;lon;timestamp;P1;durP1;ratioP1;P2;durP2;ratioP2
7983;SDS011;4037;47.980;10.172;2023-11-22T00:00:55;13.70;;;9.73;;
7983;SDS011;4037;47.980;10.172;2023-11-22T00:03:21;14.87;;;9.00;;
7983;SDS011;4037;47.980;10.172;2023-11-22T00:05:49;18.63;;;9.10;;
7983;SDS011;4037;47.980;10.172;2023-11-22T00:08:15;12.50;;;9.50;;
7983;SDS011;4037;47.980;10.172;2023-11-22T00:10:41;13.23;;;9.97;;
7983;SDS011;4037;47.980;10.172;2023-11-22T00:13:07;11.50;;;8.03;;
7983;SDS011;4037;47.980;10.172;2023-11-22T00:15:33;15.53;;;9.40;;
7983;SDS011;4037;47.980;10.172;2023-11-22T00:18:01;15.33;;;9.00;;
7983;SDS011;4037;47.980;10.172;2023-11-22T00:20:28;14.20;;;8.83;;
7983;SDS011;4037;47.980;10.172;2023-11-22T00:22:55;15.77;;;9.90;;
7983;SDS011;4037;47.980;10.172;2023-11-22T00:25:21;12.20;;;8.40;;
7983;SDS011;4037;47.980;10.172;2023-11-22T00:27:47;13.07;;;9.07;;
7983;SDS011;4037;47.980;10.172;2023-11-22T00:30:13;14.30;;;9.60;;
7983;SDS011;4037;47.980;10.172;2023-11-22T00:32:39;17.87;;;9.43;;
7983;SDS011;4037;47.980;10.172;2023-11-22T00:35:06;13.53;;;8.63;;
7983;SDS011;4037;47.980;10.172;2023-11-22T00:37:33;12.70;;;8.63;;
7983;SDS011;4037;47.980;10.172;2023-11-22T00:40:00;15.03;;;8.93;;
7983;SDS011;4037;47.980;10.172;2023-11-22T00:42:35;13.93;;;9.60;;
7983;SDS011;4037;47.980;10.172;2023-11-22T00:45:01;14.53;;;9.20;;
7983;SDS011;4037;47.980;10.172;2023-11-22T00:47:30;15.73;;;8.90;;
7983;SDS011;4037;47.980;10.172;2023-11-22T00:49:56;12.33;;;8.67;;
7983;SDS011;4037;47.980;10.172;2023-11-22T00:52:22;14.47;;;9.77;;
7983;SDS011;4037;47.980;10.172;2023-11-22T00:54:48;15.40;;;8.90;;
7983;SDS011;4037;47.980;10.172;2023-11-22T00:57:14;15.67;;;9.63;;
7983;SDS011;4037;47.980;10.172;2023-11-22T00:59:40;13.70;;;8.97;;
7983;SDS011;4037;47.980;10.172;2023-11-22T01:02:06;15.90;;;9.93;;
7983;SDS011;4037;47.980;10.172;2023-11-22T01:04:34;15.63;;;9.43;;
7983;SDS011;4037;47.980;10.172;2023-11-22T01:07:01;13.70;;;9.53;;
7983;SDS011;4037;47.980;10.172;2023-11-22T01:09:29;14.03;;;9.63;;
7983;SDS011;4037;47.980;10.172;2023-11-22T01:11:57;14.47;;;8.57;;
7983;SDS011;4037;47.980;10.172;2023-11-22T01:14:23;15.83;;;10.10;;
7983;SDS011;4037;47.980;10.172;2023-11-22T01:16:49;14.50;;;9.57;;
7983;SDS011;4037;47.980;10.172;2023-11-22T01:19:15;15.57;;;8.87;;
7983;SDS011;4037;47.980;10.172;2023-11-22T01:21:41;16.90;;;10.93;;
7983;SDS011;4037;47.980;10.172;2023-11-22T01:24:07;14.50;;;9.87;;
7983;SDS011;4037;47.980;10.172;2023-11-22T01:26:33;18.37;;;9.40;;
7983;SDS011;4037;47.980;10.172;2023-11-22T01:28:59;17.03;;;10.10;;
7983;SDS011;4037;47.980;10.172;2023-11-22T01:31:27;13.70;;;9.20;;
7983;SDS011;4037;47.980;10.172;2023-11-22T01:33:53;14.20;;;8.93;;
7983;SDS011;4037;47.980;10.172;2023-11-22T01:36:19;15.93;;;9.67;;
7983;SDS011;4037;47.980;10.172;2023-11-22T01:38:45;15.20;;;9.60;;
7983;SDS011;4037;47.980;10.172;2023-11-22T01:41:12;17.27;;;9.47;;
7983;SDS011;4037;47.980;10.172;2023-11-22T01:43:38;15.73;;;9.73;;
7983;SDS011;4037;47.980;10.172;2023-11-22T01:46:07;15.17;;;10.67;;
7983;SDS011;4037;47.980;10.172;2023-11-22T01:48:34;16.30;;;9.17;;
7983;SDS011;4037;47.980;10.172;2023-11-22T01:51:01;15.97;;;9.93;;
7983;SDS011;4037;47.980;10.172;2023-11-22T01:53:27;11.43;;;8.67;;
7983;SDS011;4037;47.980;10.172;2023-11-22T01:55:53;13.87;;;9.77;;
7983;SDS011;4037;47.980;10.172;2023-11-22T01:58:20;17.87;;;10.33;;
7983;SDS011;4037;47.980;10.172;2023-11-22T02:00:49;15.87;;;10.50;;
7983;SDS011;4037;47.980;10.172;2023-11-22T02:03:16;20.43;;;10.43;;
7983;SDS011;4037;47.980;10.172;2023-11-22T02:05:43;15.37;;;9.77;;
7983;SDS011;4037;47.980;10.172;2023-11-22T02:08:10;14.57;;;9.83;;
7983;SDS011;4037;47.980;10.172;2023-11-22T02:10:36;13.33;;;8.93;;
7983;SDS011;4037;47.980;10.172;2023-11-22T02:13:03;15.57;;;9.13;;
7983;SDS011;4037;47.980;10.172;2023-11-22T02:15:30;16.87;;;10.03;;
7983;SDS011;4037;47.980;10.172;2023-11-22T02:17:56;16.43;;;9.50;;
7983;SDS011;4037;47.980;10.172;2023-11-22T02:20:23;19.07;;;10.57;;
7983;SDS011;4037;47.980;10.172;2023-11-22T02:22:49;17.17;;;9.37;;
7983;SDS011;4037;47.980;10.172;2023-11-22T02:25:15;14.17;;;10.40;;
7983;SDS011;4037;47.980;10.172;2023-11-22T02:27:41;14.77;;;8.73;;
7983;SDS011;4037;47.980;10.172;2023-11-22T02:30:08;14.07;;;9.40;;
7983;SDS011;4037;47.980;10.172;2023-11-22T02:32:34;14.37;;;9.27;;
7983;SDS011;4037;47.980;10.172;2023-11-22T02:35:00;14.93;;;9.27;;
7983;SDS011;4037;47.980;10.172;2023-11-22T02:37:26;13.50;;;9.33;;
7983;SDS011;4037;47.980;10.172;2023-11-22T02:39:58;16.50;;;9.27;;
7983;SDS011;4037;47.980;10.172;2023-11-22T02:42:26;13.63;;;9.03;;
7983;SDS011;4037;47.980;10.172;2023-11-22T02:44:52;15.73;;;9.23;;
7983;SDS011;4037;47.980;10.172;2023-11-22T02:47:18;12.87;;;8.47;;
7983;SDS011;4037;47.980;10.172;2023-11-22T02:49:44;15.17;;;8.37;;
7983;SDS011;4037;47.980;10.172;2023-11-22T02:52:10;17.30;;;10.63;;
7983;SDS011;4037;47.980;10.172;2023-11-22T02:54:40;14.33;;;9.03;;
7983;SDS011;4037;47.980;10.172;2023-11-22T02:57:06;13.70;;;8.63;;
7983;SDS011;4037;47.980;10.172;2023-11-22T02:59:32;15.30;;;9.00;;
7983;SDS011;4037;47.980;10.172;2023-11-22T03:01:58;12.73;;;8.53;;
7983;SDS011;4037;47.980;10.172;2023-11-22T03:04:24;15.13;;;9.17;;
7983;SDS011;4037;47.980;10.172;2023-11-22T03:06:50;16.60;;;10.30;;
7983;SDS011;4037;47.980;10.172;2023-11-22T03:09:16;14.50;;;9.37;;
7983;SDS011;4037;47.980;10.172;2023-11-22T03:11:42;15.97;;;9.17;;
7983;SDS011;4037;47.980;10.172;2023-11-22T03:14:08;12.77;;;9.03;;
7983;SDS011;4037;47.980;10.172;2023-11-22T03:16:34;13.37;;;9.30;;
7983;SDS011;4037;47.980;10.172;2023-11-22T03:19:00;13.27;;;8.80;;
7983;SDS011;4037;47.980;10.172;2023-11-22T03:21:26;16.13;;;9.20;;
7983;SDS011;4037;47.980;10.172;2023-11-22T03:23:53;13.73;;;9.50;;
7983;SDS011;4037;47.980;10.172;2023-11-22T03:26:19;13.33;;;8.93;;
7983;SDS011;4037;47.980;10.172;2023-11-22T03:28:45;12.77;;;8.20;;
7983;SDS011;4037;47.980;10.172;2023-11-22T03:31:11;7.90;;;5.67;;
7983;SDS011;4037;47.980;10.172;2023-11-22T03:33:36;7.07;;;5.67;;
7983;SDS011;4037;47.980;10.172;2023-11-22T03:36:03;7.40;;;6.00;;
7983;SDS011;4037;47.980;10.172;2023-11-22T03:38:30;5.07;;;4.27;;
7983;SDS011;4037;47.980;10.172;2023-11-22T03:40:56;6.90;;;4.80;;
7983;SDS011;4037;47.980;10.172;2023-11-22T03:43:22;4.07;;;3.57;;
7983;SDS011;4037;47.980;10.172;2023-11-22T03:45:48;3.33;;;3.03;;
7983;SDS011;4037;47.980;10.172;2023-11-22T03:48:14;3.27;;;2.70;;
7983;SDS011;4037;47.980;10.172;2023-11-22T03:50:40;3.10;;;2.70;;
7983;SDS011;4037;47.980;10.172;2023-11-22T03:53:06;3.30;;;2.93;;
7983;SDS011;4037;47.980;10.172;2023-11-22T03:55:32;3.40;;;2.60;;
7983;SDS011;4037;47.980;10.172;2023-11-22T03:57:58;2.63;;;2.30;;
7983;SDS011;4037;47.980;10.172;2023-11-22T04:00:24;2.57;;;2.37;;
7983;SDS011;4037;47.980;10.172;2023-11-22T04:02:50;2.63;;;2.13;;
7983;SDS011;4037;47.980;10.172;2023-11-22T04:05:16;2.37;;;2.17;;
7983;SDS011;4037;47.980;10.172;2023-11-22T04:07:44;2.83;;;2.63;;
7983;SDS011;4037;47.980;10.172;2023-11-22T04:10:10;2.87;;;2.60;;
7983;SDS011;4037;47.980;10.172;2023-11-22T04:12:36;2.63;;;2.43;;
7983;SDS011;4037;47.980;10.172;2023-11-22T04:15:03;5.03;;;2.60;;
7983;SDS011;4037;47.980;10.172;2023-11-22T04:17:29;3.63;;;3.20;;
7983;SDS011;4037;47.980;10.172;2023-11-22T04:19:55;2.57;;;2.27;;
7983;SDS011;4037;47.980;10.172;2023-11-22T04:22:22;3.13;;;2.60;;
7983;SDS011;4037;47.980;10.172;2023-11-22T04:24:47;3.80;;;3.20;;
7983;SDS011;4037;47.980;10.172;2023-11-22T04:27:13;3.50;;;3.20;;
7983;SDS011;4037;47.980;10.172;2023-11-22T04:29:40;4.50;;;3.77;;
7983;SDS011;4037;47.980;10.172;2023-11-22T04:32:06;4.27;;;3.50;;
7983;SDS011;4037;47.980;10.172;2023-11-22T04:34:33;4.03;;;3.63;;
7983;SDS011;4037;47.980;10.172;2023-11-22T04:37:00;4.23;;;3.40;;
7983;SDS011;4037;47.980;10.172;2023-11-22T04:39:26;4.37;;;3.53;;
7983;SDS011;4037;47.980;10.172;2023-11-22T04:41:52;4.17;;;3.43;;
7983;SDS011;4037;47.980;10.172;2023-11-22T04:44:18;3.27;;;2.97;;
7983;SDS011;4037;47.980;10.172;2023-11-22T04:46:44;4.47;;;3.20;;
7983;SDS011;4037;47.980;10.172;2023-11-22T04:49:10;3.17;;;2.87;;
7983;SDS011;4037;47.980;10.172;2023-11-22T04:51:36;3.20;;;2.90;;
7983;SDS011;4037;47.980;10.172;2023-11-22T04:54:02;4.43;;;3.40;;
7983;SDS011;4037;47.980;10.172;2023-11-22T04:56:28;3.10;;;2.83;;
7983;SDS011;4037;47.980;10.172;2023-11-22T04:58:55;3.83;;;3.10;;
7983;SDS011;4037;47.980;10.172;2023-11-22T05:01:21;4.33;;;2.97;;
7983;SDS011;4037;47.980;10.172;2023-11-22T05:03:47;3.67;;;3.20;;
7983;SDS011;4037;47.980;10.172;2023-11-22T05:06:13;3.57;;;3.27;;
7983;SDS011;4037;47.980;10.172;2023-11-22T05:08:39;4.10;;;3.33;;
7983;SDS011;4037;47.980;10.172;2023-11-22T05:11:05;3.90;;;3.17;;
7983;SDS011;4037;47.980;10.172;2023-11-22T05:13:32;3.57;;;3.17;;
7983;SDS011;4037;47.980;10.172;2023-11-22T05:15:58;3.10;;;2.67;;
7983;SDS011;4037;47.980;10.172;2023-11-22T05:18:25;3.00;;;2.53;;
7983;SDS011;4037;47.980;10.172;2023-11-22T05:20:51;3.30;;;2.87;;
7983;SDS011;4037;47.980;10.172;2023-11-22T05:23:17;3.60;;;2.63;;
7983;SDS011;4037;47.980;10.172;2023-11-22T05:25:43;3.70;;;2.60;;
7983;SDS011;4037;47.980;10.172;2023-11-22T05:28:09;3.60;;;3.07;;
7983;SDS011;4037;47.980;10.172;2023-11-22T05:30:35;4.50;;;2.90;;
7983;SDS011;4037;47.980;10.172;2023-11-22T05:33:01;4.20;;;3.53;;
7983;SDS011;4037;47.980;10.172;2023-11-22T05:35:27;4.67;;;3.97;;
7983;SDS011;4037;47.980;10.172;2023-11-22T05:37:53;4.33;;;3.30;;
7983;SDS011;4037;47.980;10.172;2023-11-22T05:40:19;4.07;;;3.63;;
7983;SDS011;4037;47.980;10.172;2023-11-22T05:42:46;5.33;;;3.70;;
7983;SDS011;4037;47.980;10.172;2023-11-22T05:45:12;4.20;;;3.80;;
7983;SDS011;4037;47.980;10.172;2023-11-22T05:47:38;5.70;;;4.20;;
7983;SDS011;4037;47.980;10.172;2023-11-22T05:50:04;5.50;;;4.37;;
7983;SDS011;4037;47.980;10.172;2023-11-22T05:52:31;6.70;;;4.80;;
7983;SDS011;4037;47.980;10.172;2023-11-22T05:54:57;7.17;;;5.90;;
7983;SDS011;4037;47.980;10.172;2023-11-22T05:57:23;5.90;;;5.20;;
7983;SDS011;4037;47.980;10.172;2023-11-22T05:59:49;5.40;;;4.63;;
7983;SDS011;4037;47.980;10.172;2023-11-22T06:02:15;6.50;;;4.67;;
7983;SDS011;4037;47.980;10.172;2023-11-22T06:04:41;7.27;;;5.10;;
7983;SDS011;4037;47.980;10.172;2023-11-22T06:07:07;6.00;;;4.93;;
7983;SDS011;4037;47.980;10.172;2023-11-22T06:09:33;7.90;;;5.20;;
7983;SDS011;4037;47.980;10.172;2023-11-22T06:11:59;6.50;;;4.90;;
7983;SDS011;4037;47.980;10.172;2023-11-22T06:14:25;7.37;;;5.00;;
7983;SDS011;4037;47.980;10.172;2023-11-22T06:16:51;5.43;;;4.63;;
7983;SDS011;4037;47.980;10.172;2023-11-22T06:19:17;9.13;;;4.77;;
7983;SDS011;4037;47.980;10.172;2023-11-22T06:21:43;5.43;;;3.90;;
7983;SDS011;4037;47.980;10.172;2023-11-22T06:24:10;5.97;;;4.20;;
7983;SDS011;4037;47.980;10.172;2023-11-22T06:26:41;5.97;;;4.33;;
7983;SDS011;4037;47.980;10.172;2023-11-22T06:29:07;5.83;;;3.60;;
7983;SDS011;4037;47.980;10.172;2023-11-22T06:31:33;4.17;;;3.50;;
7983;SDS011;4037;47.980;10.172;2023-11-22T06:33:59;6.00;;;3.43;;
7983;SDS011;4037;47.980;10.172;2023-11-22T06:36:26;5.37;;;3.87;;
7983;SDS011;4037;47.980;10.172;2023-11-22T06:38:53;6.10;;;3.73;;
7983;SDS011;4037;47.980;10.172;2023-11-22T06:41:19;4.33;;;3.63;;
7983;SDS011;4037;47.980;10.172;2023-11-22T06:43:46;5.03;;;4.20;;
7983;SDS011;4037;47.980;10.172;2023-11-22T06:46:12;5.23;;;3.27;;
7983;SDS011;4037;47.980;10.172;2023-11-22T06:48:41;7.17;;;4.80;;
7983;SDS011;4037;47.980;10.172;2023-11-22T06:51:08;8.70;;;6.47;;
7983;SDS011;4037;47.980;10.172;2023-11-22T06:53:34;10.90;;;7.30;;
7983;SDS011;4037;47.980;10.172;2023-11-22T06:56:00;8.43;;;6.30;;
7983;SDS011;4037;47.980;10.172;2023-11-22T06:58:28;9.87;;;6.50;;
7983;SDS011;4037;47.980;10.172;2023-11-22T07:00:54;10.00;;;6.70;;
7983;SDS011;4037;47.980;10.172;2023-11-22T07:03:20;13.10;;;7.63;;
7983;SDS011;4037;47.980;10.172;2023-11-22T07:05:46;9.80;;;7.03;;
7983;SDS011;4037;47.980;10.172;2023-11-22T07:08:12;11.83;;;7.77;;
7983;SDS011;4037;47.980;10.172;2023-11-22T07:10:41;11.43;;;7.13;;
7983;SDS011;4037;47.980;10.172;2023-11-22T07:13:07;8.20;;;5.97;;
7983;SDS011;4037;47.980;10.172;2023-11-22T07:15:33;7.37;;;5.27;;
7983;SDS011;4037;47.980;10.172;2023-11-22T07:17:59;6.13;;;5.00;;
7983;SDS011;4037;47.980;10.172;2023-11-22T07:20:25;6.80;;;5.20;;
7983;SDS011;4037;47.980;10.172;2023-11-22T07:22:52;11.00;;;5.13;;
7983;SDS011;4037;47.980;10.172;2023-11-22T07:25:22;8.13;;;5.00;;
7983;SDS011;4037;47.980;10.172;2023-11-22T07:27:50;8.87;;;5.50;;
7983;SDS011;4037;47.980;10.172;2023-11-22T07:30:16;7.77;;;5.33;;
7983;SDS011;4037;47.980;10.172;2023-11-22T07:32:47;9.10;;;5.77;;
7983;SDS011;4037;47.980;10.172;2023-11-22T07:35:13;7.27;;;5.33;;
7983;SDS011;4037;47.980;10.172;2023-11-22T07:37:40;9.70;;;6.37;;
7983;SDS011;4037;47.980;10.172;2023-11-22T07:40:09;8.27;;;5.70;;
7983;SDS011;4037;47.980;10.172;2023-11-22T07:42:38;9.87;;;6.23;;
7983;SDS011;4037;47.980;10.172;2023-11-22T07:45:04;11.73;;;7.87;;
7983;SDS011;4037;47.980;10.172;2023-11-22T07:47:30;11.37;;;6.33;;
7983;SDS011;4037;47.980;10.172;2023-11-22T07:49:56;10.70;;;6.67;;
7983;SDS011;4037;47.980;10.172;2023-11-22T07:52:23;10.57;;;6.93;;
7983;SDS011;4037;47.980;10.172;2023-11-22T07:54:55;10.50;;;6.03;;
7983;SDS011;4037;47.980;10.172;2023-11-22T07:57:21;10.37;;;5.57;;
7983;SDS011;4037;47.980;10.172;2023-11-22T07:59:48;9.47;;;5.93;;
7983;SDS011;4037;47.980;10.172;2023-11-22T08:02:14;10.13;;;5.90;;
7983;SDS011;4037;47.980;10.172;2023-11-22T08:04:43;8.53;;;6.10;;
7983;SDS011;4037;47.980;10.172;2023-11-22T08:07:10;8.57;;;5.40;;
7983;SDS011;4037;47.980;10.172;2023-11-22T08:09:40;9.10;;;5.80;;
7983;SDS011;4037;47.980;10.172;2023-11-22T08:12:07;8.30;;;5.77;;
7983;SDS011;4037;47.980;10.172;2023-11-22T08:14:33;8.63;;;5.37;;
7983;SDS011;4037;47.980;10.172;2023-11-22T08:16:59;6.90;;;5.83;;
7983;SDS011;4037;47.980;10.172;2023-11-22T08:19:25;7.70;;;5.07;;
7983;SDS011;4037;47.980;10.172;2023-11-22T08:21:52;8.23;;;5.93;;
7983;SDS011;4037;47.980;10.172;2023-11-22T08:24:19;8.47;;;5.53;;
7983;SDS011;4037;47.980;10.172;2023-11-22T08:26:45;7.03;;;5.53;;
7983;SDS011;4037;47.980;10.172;2023-11-22T08:29:11;10.53;;;6.67;;
7983;SDS011;4037;47.980;10.172;2023-11-22T08:31:37;8.87;;;5.10;;
7983;SDS011;4037;47.980;10.172;2023-11-22T08:34:03;9.00;;;6.07;;
7983;SDS011;4037;47.980;10.172;2023-11-22T08:36:31;14.30;;;8.10;;
7983;SDS011;4037;47.980;10.172;2023-11-22T08:38:59;8.27;;;6.33;;
7983;SDS011;4037;47.980;10.172;2023-11-22T08:41:25;9.00;;;6.73;;
7983;SDS011;4037;47.980;10.172;2023-11-22T08:43:52;12.17;;;6.60;;
7983;SDS011;4037;47.980;10.172;2023-11-22T08:46:18;8.63;;;6.10;;
7983;SDS011;4037;47.980;10.172;2023-11-22T08:48:44;9.73;;;6.17;;
7983;SDS011;4037;47.980;10.172;2023-11-22T08:51:10;10.57;;;7.07;;
7983;SDS011;4037;47.980;10.172;2023-11-22T08:53:36;10.60;;;6.23;;
7983;SDS011;4037;47.980;10.172;2023-11-22T08:56:03;7.93;;;5.40;;
7983;SDS011;4037;47.980;10.172;2023-11-22T08:58:30;8.23;;;5.53;;
7983;SDS011;4037;47.980;10.172;2023-11-22T09:00:56;11.50;;;6.60;;
7983;SDS011;4037;47.980;10.172;2023-11-22T09:03:23;9.20;;;6.00;;
7983;SDS011;4037;47.980;10.172;2023-11-22T09:05:49;9.13;;;6.33;;
7983;SDS011;4037;47.980;10.172;2023-11-22T09:08:15;7.33;;;5.97;;
7983;SDS011;4037;47.980;10.172;2023-11-22T09:10:42;8.23;;;6.10;;
7983;SDS011;4037;47.980;10.172;2023-11-22T09:13:08;8.97;;;6.17;;
7983;SDS011;4037;47.980;10.172;2023-11-22T09:15:35;7.57;;;5.10;;
7983;SDS011;4037;47.980;10.172;2023-11-22T09:18:03;8.30;;;5.87;;
7983;SDS011;4037;47.980;10.172;2023-11-22T09:20:29;7.03;;;5.10;;
7983;SDS011;4037;47.980;10.172;2023-11-22T09:22:55;10.13;;;6.70;;
7983;SDS011;4037;47.980;10.172;2023-11-22T09:25:22;8.30;;;6.10;;
7983;SDS011;4037;47.980;10.172;2023-11-22T09:27:49;8.03;;;5.60;;
7983;SDS011;4037;47.980;10.172;2023-11-22T09:30:18;8.57;;;5.63;;
7983;SDS011;4037;47.980;10.172;2023-11-22T09:33:00;9.57;;;6.40;;
7983;SDS011;4037;47.980;10.172;2023-11-22T09:35:27;8.23;;;5.77;;
7983;SDS011;4037;47.980;10.172;2023-11-22T09:38:00;7.27;;;5.60;;
7983;SDS011;4037;47.980;10.172;2023-11-22T09:40:27;8.13;;;6.43;;
7983;SDS011;4037;47.980;10.172;2023-11-22T09:42:54;8.07;;;6.43;;
7983;SDS011;4037;47.980;10.172;2023-11-22T09:45:20;9.13;;;6.17;;
7983;SDS011;4037;47.980;10.172;2023-11-22T09:47:47;7.70;;;5.37;;
7983;SDS011;4037;47.980;10.172;2023-11-22T09:50:35;7.87;;;5.70;;
7983;SDS011;4037;47.980;10.172;2023-11-22T09:53:00;8.23;;;6.57;;
7983;SDS011;4037;47.980;10.172;2023-11-22T09:55:27;7.80;;;5.83;;
7983;SDS011;4037;47.980;10.172;2023-11-22T09:57:58;7.77;;;5.97;;
7983;SDS011;4037;47.980;10.172;2023-11-22T10:00:26;10.90;;;6.67;;
7983;SDS011;4037;47.980;10.172;2023-11-22T10:02:52;5.77;;;4.80;;
7983;SDS011;4037;47.980;10.172;2023-11-22T10:05:19;5.85;;;4.35;;
7983;SDS011;4037;47.980;10.172;2023-11-22T10:07:45;6.57;;;5.30;;
7983;SDS011;4037;47.980;10.172;2023-11-22T10:10:13;8.23;;;4.73;;
7983;SDS011;4037;47.980;10.172;2023-11-22T10:12:40;6.00;;;4.37;;
7983;SDS011;4037;47.980;10.172;2023-11-22T10:15:11;6.37;;;4.63;;
7983;SDS011;4037;47.980;10.172;2023-11-22T10:17:38;7.97;;;4.87;;
7983;SDS011;4037;47.980;10.172;2023-11-22T10:20:05;5.63;;;5.10;;
7983;SDS011;4037;47.980;10.172;2023-11-22T10:22:45;6.80;;;4.50;;
7983;SDS011;4037;47.980;10.172;2023-11-22T10:25:13;8.47;;;5.80;;
7983;SDS011;4037;47.980;10.172;2023-11-22T10:27:39;6.37;;;5.57;;
7983;SDS011;4037;47.980;10.172;2023-11-22T10:30:06;7.17;;;5.43;;
7983;SDS011;4037;47.980;10.172;2023-11-22T10:32:34;9.27;;;5.90;;
7983;SDS011;4037;47.980;10.172;2023-11-22T10:35:02;8.67;;;5.53;;
7983;SDS011;4037;47.980;10.172;2023-11-22T10:37:29;7.00;;;5.63;;
7983;SDS011;4037;47.980;10.172;2023-11-22T10:39:55;7.87;;;5.27;;
7983;SDS011;4037;47.980;10.172;2023-11-22T10:42:21;8.03;;;5.53;;
7983;SDS011;4037;47.980;10.172;2023-11-22T10:44:48;6.13;;;4.77;;
7983;SDS011;4037;47.980;10.172;2023-11-22T10:47:15;6.33;;;5.37;;
7983;SDS011;4037;47.980;10.172;2023-11-22T10:49:44;9.87;;;6.93;;
7983;SDS011;4037;47.980;10.172;2023-11-22T10:52:11;7.60;;;5.83;;
7983;SDS011;4037;47.980;10.172;2023-11-22T10:54:41;10.33;;;6.37;;
7983;SDS011;4037;47.980;10.172;2023-11-22T10:57:10;6.90;;;4.97;;
7983;SDS011;4037;47.980;10.172;2023-11-22T10:59:37;6.80;;;4.90;;
7983;SDS011;4037;47.980;10.172;2023-11-22T11:02:07;7.87;;;5.93;;
7983;SDS011;4037;47.980;10.172;2023-11-22T11:04:47;7.73;;;5.60;;
7983;SDS011;4037;47.980;10.172;2023-11-22T11:07:14;11.37;;;6.30;;
7983;SDS011;4037;47.980;10.172;2023-11-22T11:09:42;8.87;;;6.13;;
7983;SDS011;4037;47.980;10.172;2023-11-22T11:12:08;9.07;;;5.90;;
7983;SDS011;4037;47.980;10.172;2023-11-22T11:14:35;8.97;;;6.50;;
7983;SDS011;4037;47.980;10.172;2023-11-22T11:17:01;8.27;;;6.17;;
7983;SDS011;4037;47.980;10.172;2023-11-22T11:19:27;8.40;;;6.10;;
7983;SDS011;4037;47.980;10.172;2023-11-22T11:21:55;9.20;;;6.93;;
7983;SDS011;4037;47.980;10.172;2023-11-22T11:24:22;8.57;;;6.33;;
7983;SDS011;4037;47.980;10.172;2023-11-22T11:26:48;9.77;;;6.80;;
7983;SDS011;4037;47.980;10.172;2023-11-22T11:29:34;11.20;;;6.43;;
7983;SDS011;4037;47.980;10.172;2023-11-22T11:32:02;8.20;;;5.93;;
7983;SDS011;4037;47.980;10.172;2023-11-22T11:34:28;8.33;;;6.70;;
7983;SDS011;4037;47.980;10.172;2023-11-22T11:36:54;8.73;;;5.93;;
7983;SDS011;4037;47.980;10.172;2023-11-22T11:39:24;6.87;;;5.20;;
7983;SDS011;4037;47.980;10.172;2023-11-22T11:41:53;9.10;;;6.47;;
7983;SDS011;4037;47.980;10.172;2023-11-22T11:44:33;11.63;;;5.80;;
7983;SDS011;4037;47.980;10.172;2023-11-22T11:46:59;8.40;;;6.80;;
7983;SDS011;4037;47.980;10.172;2023-11-22T11:49:36;11.37;;;5.87;;
7983;SDS011;4037;47.980;10.172;2023-11-22T11:52:03;9.27;;;6.87;;
7983;SDS011;4037;47.980;10.172;2023-11-22T11:54:29;8.13;;;6.50;;
7983;SDS011;4037;47.980;10.172;2023-11-22T11:57:01;7.70;;;6.10;;
7983;SDS011;4037;47.980;10.172;2023-11-22T11:59:27;8.03;;;6.60;;
7983;SDS011;4037;47.980;10.172;2023-11-22T12:01:55;9.53;;;6.53;;
7983;SDS011;4037;47.980;10.172;2023-11-22T12:04:23;8.23;;;5.53;;
7983;SDS011;4037;47.980;10.172;2023-11-22T12:06:49;7.13;;;5.87;;
7983;SDS011;4037;47.980;10.172;2023-11-22T12:09:26;9.27;;;5.17;;
7983;SDS011;4037;47.980;10.172;2023-11-22T12:11:53;8.23;;;5.27;;
7983;SDS011;4037;47.980;10.172;2023-11-22T12:14:20;6.60;;;5.27;;
7983;SDS011;4037;47.980;10.172;2023-11-22T12:16:46;7.57;;;5.63;;
7983;SDS011;4037;47.980;10.172;2023-11-22T12:19:27;11.50;;;8.90;;
7983;SDS011;4037;47.980;10.172;2023-11-22T12:21:53;9.00;;;6.73;;
7983;SDS011;4037;47.980;10.172;2023-11-22T12:24:19;11.10;;;5.87;;
7983;SDS011;4037;47.980;10.172;2023-11-22T12:26:46;9.20;;;6.80;;
7983;SDS011;4037;47.980;10.172;2023-11-22T12:29:16;8.43;;;5.93;;
7983;SDS011;4037;47.980;10.172;2023-11-22T12:31:46;8.77;;;6.90;;
7983;SDS011;4037;47.980;10.172;2023-11-22T12:34:15;9.43;;;5.97;;
7983;SDS011;4037;47.980;10.172;2023-11-22T12:36:41;8.00;;;6.77;;
7983;SDS011;4037;47.980;10.172;2023-11-22T12:39:08;6.47;;;5.80;;
7983;SDS011;4037;47.980;10.172;2023-11-22T12:41:42;7.47;;;5.50;;
7983;SDS011;4037;47.980;10.172;2023-11-22T12:44:08;9.77;;;7.27;;
7983;SDS011;4037;47.980;10.172;2023-11-22T12:46:51;13.40;;;8.47;;
7983;SDS011;4037;47.980;10.172;2023-11-22T12:49:24;10.03;;;7.50;;
7983;SDS011;4037;47.980;10.172;2023-11-22T12:51:54;8.07;;;5.23;;
7983;SDS011;4037;47.980;10.172;2023-11-22T12:54:21;8.00;;;6.63;;
7983;SDS011;4037;47.980;10.172;2023-11-22T12:56:50;7.13;;;5.57;;
7983;SDS011;4037;47.980;10.172;2023-11-22T12:59:23;9.90;;;6.67;;
7983;SDS011;4037;47.980;10.172;2023-11-22T13:01:49;9.00;;;6.20;;
7983;SDS011;4037;47.980;10.172;2023-11-22T13:04:17;11.33;;;7.63;;
7983;SDS011;4037;47.980;10.172;2023-11-22T13:06:43;6.07;;;5.13;;
7983;SDS011;4037;47.980;10.172;2023-11-22T13:09:09;7.00;;;5.67;;
7983;SDS011;4037;47.980;10.172;2023-11-22T13:11:42;6.87;;;6.03;;
7983;SDS011;4037;47.980;10.172;2023-11-22T13:14:08;6.90;;;5.80;;
7983;SDS011;4037;47.980;10.172;2023-11-22T13:16:34;7.67;;;5.83;;
7983;SDS011;4037;47.980;10.172;2023-11-22T13:19:02;10.53;;;6.53;;
7983;SDS011;4037;47.980;10.172;2023-11-22T13:21:29;12.37;;;7.07;;
7983;SDS011;4037;47.980;10.172;2023-11-22T13:23:56;9.30;;;6.50;;
7983;SDS011;4037;47.980;10.172;2023-11-22T13:26:24;10.30;;;7.60;;
7983;SDS011;4037;47.980;10.172;2023-11-22T13:28:50;10.20;;;6.67;;
7983;SDS011;4037;47.980;10.172;2023-11-22T13:31:18;8.53;;;5.47;;
7983;SDS011;4037;47.980;10.172;2023-11-22T13:33:44;5.20;;;4.17;;
7983;SDS011;4037;47.980;10.172;2023-11-22T13:36:12;7.30;;;5.33;;
7983;SDS011;4037;47.980;10.172;2023-11-22T13:38:39;8.23;;;4.90;;
7983;SDS011;4037;47.980;10.172;2023-11-22T13:41:05;5.50;;;4.57;;
7983;SDS011;4037;47.980;10.172;2023-11-22T13:43:31;8.40;;;5.43;;
7983;SDS011;4037;47.980;10.172;2023-11-22T13:46:00;6.73;;;5.00;;
7983;SDS011;4037;47.980;10.172;2023-11-22T13:48:26;7.27;;;6.00;;
7983;SDS011;4037;47.980;10.172;2023-11-22T13:50:52;9.60;;;6.67;;
7983;SDS011;4037;47.980;10.172;2023-11-22T13:53:18;7.93;;;5.83;;
7983;SDS011;4037;47.980;10.172;2023-11-22T13:55:47;6.07;;;5.03;;
7983;SDS011;4037;47.980;10.172;2023-11-22T13:58:15;7.70;;;5.73;;
7983;SDS011;4037;47.980;10.172;2023-11-22T14:00:41;7.77;;;5.53;;
7983;SDS011;4037;47.980;10.172;2023-11-22T14:03:07;9.13;;;5.83;;
7983;SDS011;4037;47.980;10.172;2023-11-22T14:05:36;9.90;;;6.23;;
7983;SDS011;4037;47.980;10.172;2023-11-22T14:08:03;15.90;;;6.00;;
7983;SDS011;4037;47.980;10.172;2023-11-22T14:10:31;9.80;;;5.90;;
7983;SDS011;4037;47.980;10.172;2023-11-22T14:12:57;7.20;;;5.93;;
7983;SDS011;4037;47.980;10.172;2023-11-22T14:15:25;6.60;;;5.50;;
7983;SDS011;4037;47.980;10.172;2023-11-22T14:17:53;9.80;;;6.30;;
7983;SDS011;4037;47.980;10.172;2023-11-22T14:20:19;8.57;;;5.83;;
7983;SDS011;4037;47.980;10.172;2023-11-22T14:22:46;8.10;;;5.93;;
7983;SDS011;4037;47.980;10.172;2023-11-22T14:25:13;7.77;;;5.10;;
7983;SDS011;4037;47.980;10.172;2023-11-22T14:27:41;7.17;;;4.80;;
7983;SDS011;4037;47.980;10.172;2023-11-22T14:30:07;6.93;;;5.07;;
7983;SDS011;4037;47.980;10.172;2023-11-22T14:32:34;6.47;;;5.40;;
7983;SDS011;4037;47.980;10.172;2023-11-22T14:35:03;7.67;;;5.63;;
7983;SDS011;4037;47.980;10.172;2023-11-22T14:37:30;7.53;;;5.60;;
7983;SDS011;4037;47.980;10.172;2023-11-22T14:39:59;8.17;;;5.40;;
7983;SDS011;4037;47.980;10.172;2023-11-22T14:42:25;7.77;;;5.20;;
7983;SDS011;4037;47.980;10.172;2023-11-22T14:44:52;7.27;;;4.90;;
7983;SDS011;4037;47.980;10.172;2023-11-22T14:47:19;7.20;;;5.00;;
7983;SDS011;4037;47.980;10.172;2023-11-22T14:49:50;9.70;;;5.40;;
7983;SDS011;4037;47.980;10.172;2023-11-22T14:52:16;6.80;;;4.67;;
7983;SDS011;4037;47.980;10.172;2023-11-22T14:54:43;5.87;;;5.20;;